createdAt,value
2023-04-13T00:00:32.274Z,97076.31
2023-04-13T00:03:35.740Z,97080.00
2023-04-13T00:06:39.014Z,97084.53
2023-04-13T00:09:41.691Z,97085.38
2023-04-13T00:12:47.632Z,97090.28
2023-04-13T00:15:53.684Z,97093.03
2023-04-13T00:18:56.408Z,97089.22
2023-04-13T00:22:00.145Z,97097.75
2023-04-13T00:25:02.764Z,97107.06
2023-04-13T00:28:06.399Z,97108.97
2023-04-13T00:31:10.730Z,97116.19
2023-04-13T00:34:13.555Z,97109.47
2023-04-13T00:37:16.211Z,97107.44
2023-04-13T00:40:19.402Z,97099.47
2023-04-13T00:43:22.033Z,97095.44
2023-04-13T00:46:26.498Z,97089.59
2023-04-13T00:49:30.688Z,97089.09
2023-04-13T00:52:38.145Z,97086.41
2023-04-13T00:55:42.702Z,97091.25
2023-04-13T00:58:45.813Z,97091.47
2023-04-13T01:01:56.435Z,97074.78
2023-04-13T01:04:59.662Z,97078.03
2023-04-13T01:08:09.653Z,97081.22
2023-04-13T01:11:18.682Z,97101.81
2023-04-13T01:14:30.827Z,97105.59
2023-04-13T01:17:37.826Z,97110.69
2023-04-13T01:20:45.214Z,97108.25
2023-04-13T01:23:57.203Z,97107.59
2023-04-13T01:27:11.608Z,97099.72
2023-04-13T01:30:19.397Z,97093.94
2023-04-13T01:33:25.293Z,97094.28
2023-04-13T01:36:28.006Z,97096.53
2023-04-13T01:39:32.162Z,97097.38
2023-04-13T01:42:35.279Z,97097.66
2023-04-13T01:45:47.465Z,97096.69
2023-04-13T01:48:53.366Z,97087.25
2023-04-13T01:51:58.760Z,97096.13
2023-04-13T01:55:01.869Z,97101.84
2023-04-13T01:58:05.792Z,97091.47
2023-04-13T02:01:10.881Z,97095.53
2023-04-13T02:04:13.932Z,97084.78
2023-04-13T02:07:17.568Z,97092.00
2023-04-13T02:10:20.831Z,97084.78
2023-04-13T02:13:23.574Z,97078.72
2023-04-13T02:16:28.386Z,97086.94
2023-04-13T02:19:31.598Z,97092.34
2023-04-13T02:22:34.219Z,97095.84
2023-04-13T02:25:37.447Z,97085.28
2023-04-13T02:28:41.662Z,97093.13
2023-04-13T02:31:46.063Z,97091.22
2023-04-13T02:34:48.864Z,97101.22
2023-04-13T02:37:51.451Z,97085.75
2023-04-13T02:40:55.778Z,97088.66
2023-04-13T02:43:58.675Z,97089.78
2023-04-13T02:47:02.922Z,97083.16
2023-04-13T02:50:06.775Z,97090.47
2023-04-13T02:53:09.405Z,97089.22
2023-04-13T02:56:12.098Z,97091.38
2023-04-13T02:59:16.574Z,97091.72
2023-04-13T03:02:20.819Z,97097.06
2023-04-13T03:05:29.131Z,97102.16
2023-04-13T03:08:32.907Z,97102.22
2023-04-13T03:11:36.309Z,97104.94
2023-04-13T03:14:39.452Z,97101.47
2023-04-13T03:17:44.152Z,97109.50
2023-04-13T03:20:47.297Z,97110.25
2023-04-13T03:23:50.188Z,97107.28
2023-04-13T03:26:55.186Z,97118.38
2023-04-13T03:29:57.876Z,97115.53
2023-04-13T03:33:02.442Z,97117.94
2023-04-13T03:36:06.226Z,97121.69
2023-04-13T03:39:10.892Z,97121.69
2023-04-13T03:42:13.768Z,97127.16
2023-04-13T03:45:16.892Z,97140.19
2023-04-13T03:48:21.297Z,97138.88
2023-04-13T03:51:24.326Z,97140.00
2023-04-13T03:54:27.110Z,97151.53
2023-04-13T03:57:30.855Z,97145.72
2023-04-13T04:00:33.592Z,97154.72
2023-04-13T04:03:38.719Z,97150.41
2023-04-13T04:06:41.531Z,97149.28
2023-04-13T04:09:44.271Z,97149.31
2023-04-13T04:12:47.077Z,97149.91
2023-04-13T04:15:50.410Z,97143.81
2023-04-13T04:18:54.622Z,97140.13
2023-04-13T04:21:57.936Z,97142.97
2023-04-13T04:25:01.881Z,97138.50
2023-04-13T04:28:06.324Z,97141.03
2023-04-13T04:31:10.965Z,97152.47
2023-04-13T04:34:16.877Z,97154.59
2023-04-13T04:37:22.000Z,97156.16
2023-04-13T04:40:25.836Z,97157.84
2023-04-13T04:43:30.368Z,97168.13
2023-04-13T04:46:33.085Z,97164.59
2023-04-13T04:49:37.579Z,97163.88
2023-04-13T04:52:40.762Z,97162.97
2023-04-13T04:55:44.285Z,97157.53
2023-04-13T04:58:47.433Z,97155.22
2023-04-13T05:01:50.824Z,97160.91
2023-04-13T05:04:56.041Z,97160.13
2023-04-13T05:07:58.884Z,97157.31
2023-04-13T05:11:01.543Z,97163.84
2023-04-13T05:14:04.776Z,97157.97
2023-04-13T05:17:07.684Z,97155.97
2023-04-13T05:20:13.620Z,97153.00
2023-04-13T05:23:16.476Z,97149.88
2023-04-13T05:26:20.459Z,97148.41
2023-04-13T05:29:23.344Z,97152.34
2023-04-13T05:32:26.105Z,97154.25
2023-04-13T05:35:30.352Z,97163.53
2023-04-13T05:38:33.190Z,97171.03
2023-04-13T05:41:35.935Z,97173.19
2023-04-13T05:44:38.767Z,97169.09
2023-04-13T05:47:41.685Z,97177.03
2023-04-13T05:50:45.939Z,97178.66
2023-04-13T05:53:48.677Z,97182.34
2023-04-13T05:56:51.502Z,97188.84
2023-04-13T05:59:54.372Z,97194.56
2023-04-13T06:02:59.434Z,97184.22
2023-04-13T06:06:04.719Z,97195.34
2023-04-13T06:09:08.790Z,97201.84
2023-04-13T06:12:12.356Z,97202.81
2023-04-13T06:15:15.533Z,97203.50
2023-04-13T06:18:18.410Z,97196.38
2023-04-13T06:21:22.682Z,97201.88
2023-04-13T06:24:25.522Z,97201.72
2023-04-13T06:27:28.387Z,97198.25
2023-04-13T06:30:31.518Z,97209.09
2023-04-13T06:33:34.220Z,97213.28
2023-04-13T06:36:40.596Z,97207.78
2023-04-13T06:39:43.555Z,97210.44
2023-04-13T06:42:46.649Z,97216.59
2023-04-13T06:45:49.679Z,97215.38
2023-04-13T06:48:52.475Z,97215.16
2023-04-13T06:51:56.953Z,97217.84
2023-04-13T06:54:59.692Z,97212.28
2023-04-13T06:58:02.588Z,97214.59
2023-04-13T07:01:06.773Z,97208.88
2023-04-13T07:04:10.014Z,97224.06
2023-04-13T07:07:14.171Z,97220.09
2023-04-13T07:10:17.031Z,97213.84
2023-04-13T07:13:19.892Z,97208.28
2023-04-13T07:16:22.733Z,97205.47
2023-04-13T07:19:26.138Z,97205.84
2023-04-13T07:22:35.128Z,97201.28
2023-04-13T07:25:38.028Z,97199.78
2023-04-13T07:28:41.614Z,97204.38
2023-04-13T07:31:44.618Z,97210.75
2023-04-13T07:34:47.519Z,97205.81
2023-04-13T07:37:53.081Z,97216.81
2023-04-13T07:40:56.480Z,97216.75
2023-04-13T07:43:59.187Z,97206.91
2023-04-13T07:47:02.320Z,97210.97
2023-04-13T07:50:07.062Z,97216.25
2023-04-13T07:53:11.587Z,97202.03
2023-04-13T07:56:14.660Z,97208.78
2023-04-13T07:59:17.510Z,97207.44
2023-04-13T08:02:21.700Z,97208.50
2023-04-13T08:05:24.943Z,97214.75
2023-04-13T08:08:29.443Z,97212.47
2023-04-13T08:11:32.857Z,97214.81
2023-04-13T08:14:36.356Z,97225.38
2023-04-13T08:17:39.739Z,97235.78
2023-04-13T08:20:42.529Z,97239.34
2023-04-13T08:23:46.853Z,97239.34
2023-04-13T08:26:49.785Z,97234.38
2023-04-13T08:29:56.707Z,97241.09
2023-04-13T08:32:59.552Z,97240.88
2023-04-13T08:36:02.438Z,97234.72
2023-04-13T08:39:09.683Z,97229.59
2023-04-13T08:42:13.047Z,97234.28
2023-04-13T08:45:16.708Z,97233.31
2023-04-13T08:48:19.530Z,97228.75
2023-04-13T08:51:23.821Z,97232.03
2023-04-13T08:54:29.196Z,97231.44
2023-04-13T08:57:32.448Z,97233.47
2023-04-13T09:00:37.294Z,97235.59
2023-04-13T09:03:49.998Z,97233.41
2023-04-13T09:06:53.286Z,97238.84
2023-04-13T09:09:59.107Z,97234.13
2023-04-13T09:13:01.981Z,97231.03
2023-04-13T09:16:05.480Z,97232.25
2023-04-13T09:19:09.590Z,97233.03
2023-04-13T09:22:15.524Z,97236.81
2023-04-13T09:25:25.083Z,97228.69
2023-04-13T09:28:27.943Z,97221.88
2023-04-13T09:31:34.700Z,97222.56
2023-04-13T09:34:37.618Z,97219.66
2023-04-13T09:37:41.746Z,97212.91
2023-04-13T09:40:54.429Z,97219.59
2023-04-13T09:43:57.708Z,97220.16
2023-04-13T09:47:02.282Z,97225.94
2023-04-13T09:50:05.917Z,97227.50
2023-04-13T09:53:10.639Z,97217.78
2023-04-13T09:56:14.990Z,97220.16
2023-04-13T09:59:19.579Z,97227.03
2023-04-13T10:02:23.547Z,97224.75
2023-04-13T10:05:28.913Z,97220.97
2023-04-13T10:08:38.292Z,97220.66
2023-04-13T10:11:47.552Z,97221.78
2023-04-13T10:14:55.325Z,97217.22
2023-04-13T10:18:08.147Z,97216.47
2023-04-13T10:21:11.829Z,97213.50
2023-04-13T10:24:15.191Z,97208.84
2023-04-13T10:27:20.654Z,97203.78
2023-04-13T10:30:24.792Z,97206.25
2023-04-13T10:33:31.403Z,97202.78
2023-04-13T10:36:43.127Z,97199.31
2023-04-13T10:39:46.045Z,97205.88
2023-04-13T10:42:53.165Z,97201.38
2023-04-13T10:46:07.002Z,97203.78
2023-04-13T10:49:09.868Z,97202.66
2023-04-13T10:52:12.875Z,97199.66
2023-04-13T10:55:19.109Z,97203.75
2023-04-13T10:58:23.256Z,97198.16
2023-04-13T11:01:26.735Z,97206.94
2023-04-13T11:04:32.187Z,97204.53
2023-04-13T11:07:35.371Z,97203.66
2023-04-13T11:10:38.343Z,97208.16
2023-04-13T11:13:48.353Z,97210.91
2023-04-13T11:16:51.359Z,97223.06
2023-04-13T11:19:55.853Z,97223.94
2023-04-13T11:22:58.901Z,97226.94
2023-04-13T11:26:02.938Z,97237.06
2023-04-13T11:29:07.081Z,97251.84
2023-04-13T11:32:18.575Z,97242.03
2023-04-13T11:35:23.323Z,97241.06
2023-04-13T11:38:26.238Z,97230.69
2023-04-13T11:41:32.376Z,97218.09
2023-04-13T11:44:37.682Z,97211.44
2023-04-13T11:47:41.327Z,97202.38
2023-04-13T11:50:46.398Z,97206.00
2023-04-13T11:53:51.350Z,97211.69
2023-04-13T11:56:55.682Z,97197.59
2023-04-13T11:59:59.939Z,97200.44
2023-04-13T12:03:11.806Z,97198.13
2023-04-13T12:06:26.046Z,97193.06
2023-04-13T12:09:54.739Z,97191.38
2023-04-13T12:13:16.948Z,97192.19
2023-04-13T12:19:41.058Z,97184.34
2023-04-13T12:22:54.929Z,97195.09
2023-04-13T12:26:31.419Z,97203.75
2023-04-13T12:29:28.614Z,97209.41
2023-04-13T12:32:33.413Z,97207.72
2023-04-13T12:35:37.140Z,97209.81
2023-04-13T12:38:40.071Z,97210.72
2023-04-13T12:41:42.765Z,97197.00
2023-04-13T12:44:45.687Z,97193.28
2023-04-13T12:47:50.001Z,97194.47
2023-04-13T12:50:53.196Z,97189.41
2023-04-13T12:53:56.095Z,97187.63
2023-04-13T12:56:59.833Z,97185.06
2023-04-13T13:00:05.369Z,97185.28
2023-04-13T13:03:14.615Z,97168.84
2023-04-13T13:06:17.797Z,97178.81
2023-04-13T13:09:20.694Z,97177.22
2023-04-13T13:12:23.820Z,97179.50
2023-04-13T13:15:26.756Z,97176.81
2023-04-13T13:18:46.683Z,97178.44
2023-04-13T13:21:52.983Z,97184.03
2023-04-13T13:24:57.001Z,97170.00
2023-04-13T13:28:13.146Z,97175.63
2023-04-13T13:31:17.153Z,97171.84
2023-04-13T13:34:21.307Z,97168.06
2023-04-13T13:37:24.196Z,97169.63
2023-04-13T13:40:27.231Z,97170.28
2023-04-13T13:43:30.086Z,97172.00
2023-04-13T13:46:33.432Z,97171.72
2023-04-13T13:49:37.827Z,97174.22
2023-04-13T13:52:51.662Z,97186.44
2023-04-13T13:56:04.265Z,97186.38
2023-04-13T13:59:07.004Z,97181.09
2023-04-13T14:02:10.491Z,97179.13
2023-04-13T14:05:14.811Z,97190.19
2023-04-13T14:08:17.681Z,97189.72
2023-04-13T14:11:20.484Z,97188.47
2023-04-13T14:14:23.297Z,97189.41
2023-04-13T14:17:26.063Z,97185.47
2023-04-13T14:20:30.990Z,97186.75
2023-04-13T14:23:34.159Z,97188.03
2023-04-13T14:26:38.287Z,97184.09
2023-04-13T14:29:40.970Z,97190.47
2023-04-13T14:32:43.711Z,97185.38
2023-04-13T14:35:48.197Z,97187.25
2023-04-13T14:38:52.554Z,97196.88
2023-04-13T14:41:56.786Z,97199.34
2023-04-13T14:44:59.997Z,97202.47
2023-04-13T14:48:02.941Z,97203.84
2023-04-13T14:51:07.521Z,97194.50
2023-04-13T14:54:10.223Z,97193.81
2023-04-13T14:57:13.265Z,97197.50
2023-04-13T15:00:21.509Z,97200.06
2023-04-13T15:03:24.528Z,97208.00
2023-04-13T15:06:28.928Z,97215.91
2023-04-13T15:09:31.730Z,97233.25
2023-04-13T15:12:34.666Z,97234.75
2023-04-13T15:15:38.808Z,97242.63
2023-04-13T15:18:41.619Z,97237.34
2023-04-13T15:21:45.874Z,97232.06
2023-04-13T15:24:48.699Z,97246.66
2023-04-13T15:27:53.117Z,97252.38
2023-04-13T15:30:55.880Z,97272.00
2023-04-13T15:33:58.678Z,97261.66
2023-04-13T15:37:02.855Z,97260.63
2023-04-13T15:40:07.618Z,97257.19
2023-04-13T15:43:10.728Z,97260.06
2023-04-13T15:46:13.491Z,97255.97
2023-04-13T15:49:16.271Z,97255.56
2023-04-13T15:52:20.255Z,97254.81
2023-04-13T15:55:23.205Z,97257.88
2023-04-13T15:58:25.954Z,97258.63
2023-04-13T16:01:28.689Z,97260.63
2023-04-13T16:04:32.283Z,97262.06
2023-04-13T16:07:36.821Z,97258.00
2023-04-13T16:10:39.595Z,97265.03
2023-04-13T16:13:49.575Z,97273.00
2023-04-13T16:16:53.732Z,97275.75
2023-04-13T16:19:56.481Z,97282.69
2023-04-13T16:23:03.808Z,97285.66
2023-04-13T16:26:07.754Z,97292.69
2023-04-13T16:29:10.618Z,97292.75
2023-04-13T16:32:13.322Z,97299.72
2023-04-13T16:35:16.935Z,97302.63
2023-04-13T16:38:21.111Z,97309.94
2023-04-13T16:41:23.809Z,97312.03
2023-04-13T16:44:26.632Z,97306.16
2023-04-13T16:47:29.512Z,97310.41
2023-04-13T16:50:32.749Z,97316.63
2023-04-13T16:53:37.144Z,97328.69
2023-04-13T16:56:40.018Z,97323.78
2023-04-13T16:59:42.849Z,97332.13
2023-04-13T17:02:45.794Z,97337.09
2023-04-13T17:05:48.646Z,97336.28
2023-04-13T17:08:52.846Z,97319.81
2023-04-13T17:11:56.005Z,97330.22
2023-04-13T17:15:00.824Z,97335.56
2023-04-13T17:18:03.701Z,97329.50
2023-04-13T17:21:07.430Z,97339.81
2023-04-13T17:24:11.900Z,97344.75
2023-04-13T17:27:14.773Z,97346.84
2023-04-13T17:30:17.999Z,97345.59
2023-04-13T17:33:20.776Z,97346.16
2023-04-13T17:36:23.616Z,97356.09
2023-04-13T17:39:29.301Z,97352.03
2023-04-13T17:42:32.094Z,97365.94
2023-04-13T17:45:34.980Z,97369.13
2023-04-13T17:48:38.010Z,97370.00
2023-04-13T17:51:40.932Z,97374.34
2023-04-13T17:54:45.058Z,97376.19
2023-04-13T17:57:47.961Z,97374.13
2023-04-13T18:00:51.493Z,97373.81
2023-04-13T18:03:54.470Z,97375.41
2023-04-13T18:06:57.648Z,97380.50
2023-04-13T18:10:01.994Z,97376.72
2023-04-13T18:13:05.051Z,97369.59
2023-04-13T18:16:11.760Z,97369.56
2023-04-13T18:19:16.542Z,97361.75
2023-04-13T18:22:19.252Z,97366.03
2023-04-13T18:25:23.313Z,97367.84
2023-04-13T18:28:26.178Z,97370.56
2023-04-13T18:31:28.992Z,97374.75
2023-04-13T18:34:34.376Z,97385.25
2023-04-13T18:37:38.655Z,97379.91
2023-04-13T18:40:43.318Z,97379.84
2023-04-13T18:43:46.133Z,97375.91
2023-04-13T18:46:49.333Z,97378.44
2023-04-13T18:49:52.406Z,97387.81
2023-04-13T18:52:55.265Z,97385.72
2023-04-13T18:55:59.995Z,97389.81
2023-04-13T18:59:02.891Z,97385.69
2023-04-13T19:02:05.791Z,97389.47
2023-04-13T19:05:12.819Z,97377.75
2023-04-13T19:08:16.933Z,97383.91
2023-04-13T19:11:27.231Z,97390.38
2023-04-13T19:14:30.261Z,97389.84
2023-04-13T19:17:34.253Z,97377.59
2023-04-13T19:20:37.098Z,97372.22
2023-04-13T19:23:40.785Z,97378.94
2023-04-13T19:26:45.140Z,97372.78
2023-04-13T19:29:47.905Z,97378.66
2023-04-13T19:32:51.161Z,97381.38
2023-04-13T19:35:53.955Z,97382.00
2023-04-13T19:38:56.671Z,97382.81
2023-04-13T19:42:00.806Z,97392.16
2023-04-13T19:45:03.720Z,97389.56
2023-04-13T19:48:06.725Z,97397.56
2023-04-13T19:51:09.582Z,97411.97
2023-04-13T19:54:12.525Z,97410.38
2023-04-13T19:57:16.817Z,97406.63
2023-04-13T20:00:20.456Z,97409.00
2023-04-13T20:03:23.785Z,97408.44
2023-04-13T20:06:27.160Z,97403.16
2023-04-13T20:09:30.811Z,97413.81
2023-04-13T20:12:34.906Z,97407.69
2023-04-13T20:15:39.640Z,97413.31
2023-04-13T20:18:43.979Z,97418.34
2023-04-13T20:21:48.256Z,97420.81
2023-04-13T20:24:51.859Z,97426.47
2023-04-13T20:27:56.838Z,97428.06
2023-04-13T20:31:00.584Z,97421.72
2023-04-13T20:34:04.488Z,97435.28
2023-04-13T20:37:10.019Z,97439.59
2023-04-13T20:40:14.017Z,97447.31
2023-04-13T20:43:20.486Z,97448.88
2023-04-13T20:46:25.415Z,97451.03
2023-04-13T20:49:31.848Z,97448.88
2023-04-13T20:52:35.421Z,97454.22
2023-04-13T20:55:39.470Z,97450.72
2023-04-13T20:58:43.811Z,97442.72
2023-04-13T21:01:48.954Z,97445.63
2023-04-13T21:04:54.008Z,97434.97
2023-04-13T21:07:57.279Z,97432.81
2023-04-13T21:11:00.593Z,97429.66
2023-04-13T21:14:05.042Z,97426.47
2023-04-13T21:17:08.213Z,97421.91
2023-04-13T21:20:12.715Z,97413.06
2023-04-13T21:23:15.847Z,97408.81
2023-04-13T21:26:19.159Z,97416.28
2023-04-13T21:29:23.684Z,97402.44
2023-04-13T21:32:26.707Z,97400.31
2023-04-13T21:35:30.036Z,97400.31
2023-04-13T21:38:33.456Z,97410.94
2023-04-13T21:41:36.433Z,97410.41
2023-04-13T21:44:40.920Z,97411.75
2023-04-13T21:47:44.046Z,97411.22
2023-04-13T21:50:48.045Z,97411.22
2023-04-13T21:53:52.628Z,97424.03
2023-04-13T21:56:55.453Z,97419.22
2023-04-13T22:00:00.258Z,97422.19
2023-04-13T22:03:03.648Z,97415.78
2023-04-13T22:06:09.125Z,97405.66
2023-04-13T22:09:12.668Z,97405.38
2023-04-13T22:12:16.747Z,97398.94
2023-04-13T22:15:21.197Z,97400.53
2023-04-13T22:18:24.582Z,97390.94
2023-04-13T22:21:28.045Z,97391.47
2023-04-13T22:24:31.083Z,97390.38
2023-04-13T22:27:33.941Z,97387.47
2023-04-13T22:30:38.205Z,97393.84
2023-04-13T22:33:41.186Z,97403.47
2023-04-13T22:36:44.158Z,97408.78
2023-04-13T22:39:47.049Z,97406.38
2023-04-13T22:42:49.997Z,97413.63
2023-04-13T22:46:03.357Z,97413.63
2023-04-13T22:49:06.477Z,97410.94
2023-04-13T22:52:09.187Z,97405.91
2023-04-13T22:55:12.387Z,97399.72
2023-04-13T22:58:15.242Z,97401.34
2023-04-13T23:01:19.445Z,97395.97
2023-04-13T23:04:22.716Z,97390.63
2023-04-13T23:07:25.569Z,97391.66
2023-04-13T23:10:30.396Z,97385.00
2023-04-13T23:13:33.113Z,97389.25
2023-04-13T23:16:37.348Z,97382.03
2023-04-13T23:19:40.281Z,97383.13
2023-04-13T23:22:43.257Z,97396.72
2023-04-13T23:25:49.906Z,97402.59
2023-04-13T23:28:52.713Z,97388.44
2023-04-13T23:31:57.768Z,97393.19
2023-04-13T23:35:00.936Z,97400.44
2023-04-13T23:38:03.769Z,97401.75
2023-04-13T23:41:06.926Z,97397.97
2023-04-13T23:44:09.840Z,97407.59
2023-04-13T23:47:14.078Z,97402.84
2023-04-13T23:50:18.019Z,97392.16
2023-04-13T23:53:20.799Z,97392.44
2023-04-13T23:56:23.813Z,97399.16
2023-04-13T23:59:26.547Z,97390.09
